Jilin, China
Current Conditions -  °F | °C
As of 5:00 PM on Tuesday 21 Oct 2014 (Local Time) from ZYCC Reporting Station
Smoke Smoke  
Wind Chill: 34°   Ceiling: Unl
Heat Index: 34°   Visibility: 2.5mi
Dew Point: -2°   Wind: 0mph
Humidity: 22%   Direction: NA
Pressure: 30.27"   Gusts: NA
Location:  43.85°N, 126.55°E
Report Text: ZYCC 210900Z 00000MPS 4000 FU NSC 01/M19 Q1025 NOSIG
Loading
Personal Weather Stations






























Interactive Weather Map
Tropical Storm Tracking
New forecast layout! Learn more

10-Day Weather Forecast

Advertisements
Track Severe Weather on mobile